sensor_id;sensor_type;location;lat;lon;timestamp;P1;durP1;ratioP1;P2;durP2;ratioP2
22995;SDS011;11664;49.774;8.650;2023-01-16T00:01:14;3.63;;;3.42;;
22995;SDS011;11664;49.774;8.650;2023-01-16T00:03:40;3.17;;;3.08;;
22995;SDS011;11664;49.774;8.650;2023-01-16T00:06:05;3.30;;;3.10;;
22995;SDS011;11664;49.774;8.650;2023-01-16T00:08:31;4.68;;;3.33;;
22995;SDS011;11664;49.774;8.650;2023-01-16T00:10:56;3.10;;;2.90;;
22995;SDS011;11664;49.774;8.650;2023-01-16T00:13:22;3.50;;;3.22;;
22995;SDS011;11664;49.774;8.650;2023-01-16T00:15:48;3.47;;;3.05;;
22995;SDS011;11664;49.774;8.650;2023-01-16T00:18:15;4.72;;;3.17;;
22995;SDS011;11664;49.774;8.650;2023-01-16T00:20:41;3.42;;;3.05;;
22995;SDS011;11664;49.774;8.650;2023-01-16T00:23:07;4.60;;;3.35;;
22995;SDS011;11664;49.774;8.650;2023-01-16T00:25:33;3.33;;;3.17;;
22995;SDS011;11664;49.774;8.650;2023-01-16T00:28:03;5.03;;;2.97;;
22995;SDS011;11664;49.774;8.650;2023-01-16T00:30:28;8.73;;;3.22;;
22995;SDS011;11664;49.774;8.650;2023-01-16T00:32:54;3.25;;;3.05;;
22995;SDS011;11664;49.774;8.650;2023-01-16T00:35:19;3.38;;;3.10;;
22995;SDS011;11664;49.774;8.650;2023-01-16T00:37:45;8.43;;;2.92;;
22995;SDS011;11664;49.774;8.650;2023-01-16T00:40:10;3.10;;;3.00;;
22995;SDS011;11664;49.774;8.650;2023-01-16T00:42:36;4.85;;;2.92;;
22995;SDS011;11664;49.774;8.650;2023-01-16T00:45:02;2.95;;;2.85;;
22995;SDS011;11664;49.774;8.650;2023-01-16T00:47:27;3.35;;;2.78;;
22995;SDS011;11664;49.774;8.650;2023-01-16T00:49:53;3.15;;;2.95;;
22995;SDS011;11664;49.774;8.650;2023-01-16T00:52:19;9.70;;;3.17;;
22995;SDS011;11664;49.774;8.650;2023-01-16T00:54:44;2.90;;;2.78;;
22995;SDS011;11664;49.774;8.650;2023-01-16T00:57:10;3.15;;;2.75;;
22995;SDS011;11664;49.774;8.650;2023-01-16T00:59:35;3.17;;;2.95;;
22995;SDS011;11664;49.774;8.650;2023-01-16T01:02:01;4.05;;;3.63;;
22995;SDS011;11664;49.774;8.650;2023-01-16T01:04:27;3.03;;;2.83;;
22995;SDS011;11664;49.774;8.650;2023-01-16T01:06:53;3.20;;;2.90;;
22995;SDS011;11664;49.774;8.650;2023-01-16T01:09:18;4.75;;;2.63;;
22995;SDS011;11664;49.774;8.650;2023-01-16T01:11:44;3.20;;;3.10;;
22995;SDS011;11664;49.774;8.650;2023-01-16T01:14:10;6.57;;;3.25;;
22995;SDS011;11664;49.774;8.650;2023-01-16T01:16:35;4.43;;;2.92;;
22995;SDS011;11664;49.774;8.650;2023-01-16T01:19:01;3.55;;;3.30;;
22995;SDS011;11664;49.774;8.650;2023-01-16T01:21:26;6.55;;;3.45;;
22995;SDS011;11664;49.774;8.650;2023-01-16T01:23:52;3.63;;;3.33;;
22995;SDS011;11664;49.774;8.650;2023-01-16T01:26:19;3.40;;;3.10;;
22995;SDS011;11664;49.774;8.650;2023-01-16T01:28:45;3.15;;;3.03;;
22995;SDS011;11664;49.774;8.650;2023-01-16T01:31:11;7.75;;;3.15;;
22995;SDS011;11664;49.774;8.650;2023-01-16T01:33:37;3.15;;;2.90;;
22995;SDS011;11664;49.774;8.650;2023-01-16T01:36:04;3.20;;;2.97;;
22995;SDS011;11664;49.774;8.650;2023-01-16T01:38:31;3.25;;;2.92;;
22995;SDS011;11664;49.774;8.650;2023-01-16T01:40:57;3.00;;;2.80;;
22995;SDS011;11664;49.774;8.650;2023-01-16T01:43:38;4.45;;;3.55;;
22995;SDS011;11664;49.774;8.650;2023-01-16T01:46:14;2.72;;;2.63;;
22995;SDS011;11664;49.774;8.650;2023-01-16T01:49:17;2.78;;;2.67;;
22995;SDS011;11664;49.774;8.650;2023-01-16T01:51:46;2.72;;;2.63;;
22995;SDS011;11664;49.774;8.650;2023-01-16T01:54:12;3.20;;;3.00;;
22995;SDS011;11664;49.774;8.650;2023-01-16T01:56:53;3.20;;;2.97;;
22995;SDS011;11664;49.774;8.650;2023-01-16T01:59:24;6.47;;;2.92;;
22995;SDS011;11664;49.774;8.650;2023-01-16T02:01:53;2.97;;;2.88;;
22995;SDS011;11664;49.774;8.650;2023-01-16T02:04:22;3.00;;;2.90;;
22995;SDS011;11664;49.774;8.650;2023-01-16T02:06:57;2.78;;;2.67;;
22995;SDS011;11664;49.774;8.650;2023-01-16T02:09:26;2.80;;;2.60;;
22995;SDS011;11664;49.774;8.650;2023-01-16T02:11:58;8.52;;;3.15;;
22995;SDS011;11664;49.774;8.650;2023-01-16T02:14:30;3.70;;;2.70;;
22995;SDS011;11664;49.774;8.650;2023-01-16T02:17:03;3.25;;;2.95;;
22995;SDS011;11664;49.774;8.650;2023-01-16T02:22:45;5.10;;;3.05;;
22995;SDS011;11664;49.774;8.650;2023-01-16T02:42:26;3.10;;;2.90;;
22995;SDS011;11664;49.774;8.650;2023-01-16T02:44:35;3.40;;;3.20;;
22995;SDS011;11664;49.774;8.650;2023-01-16T02:47:14;5.88;;;3.22;;
22995;SDS011;11664;49.774;8.650;2023-01-16T02:50:01;6.07;;;3.40;;
22995;SDS011;11664;49.774;8.650;2023-01-16T02:52:40;5.88;;;3.03;;
22995;SDS011;11664;49.774;8.650;2023-01-16T02:58:04;3.53;;;3.33;;
22995;SDS011;11664;49.774;8.650;2023-01-16T03:00:30;8.77;;;3.03;;
22995;SDS011;11664;49.774;8.650;2023-01-16T03:02:58;3.50;;;3.20;;
22995;SDS011;11664;49.774;8.650;2023-01-16T03:05:23;3.08;;;2.75;;
22995;SDS011;11664;49.774;8.650;2023-01-16T03:13:47;3.00;;;2.80;;
22995;SDS011;11664;49.774;8.650;2023-01-16T03:16:25;3.22;;;3.03;;
22995;SDS011;11664;49.774;8.650;2023-01-16T03:19:09;4.20;;;3.20;;
22995;SDS011;11664;49.774;8.650;2023-01-16T03:27:06;4.95;;;3.00;;
22995;SDS011;11664;49.774;8.650;2023-01-16T03:32:18;3.03;;;2.93;;
22995;SDS011;11664;49.774;8.650;2023-01-16T03:35:00;2.85;;;2.75;;
22995;SDS011;11664;49.774;8.650;2023-01-16T03:37:32;3.15;;;3.05;;
22995;SDS011;11664;49.774;8.650;2023-01-16T03:40:06;3.80;;;3.50;;
22995;SDS011;11664;49.774;8.650;2023-01-16T03:42:36;7.30;;;3.10;;
22995;SDS011;11664;49.774;8.650;2023-01-16T03:45:05;3.45;;;3.17;;
22995;SDS011;11664;49.774;8.650;2023-01-16T03:47:47;3.40;;;3.13;;
22995;SDS011;11664;49.774;8.650;2023-01-16T03:50:18;3.13;;;2.92;;
22995;SDS011;11664;49.774;8.650;2023-01-16T03:52:47;5.10;;;3.38;;
22995;SDS011;11664;49.774;8.650;2023-01-16T03:57:55;4.63;;;3.40;;
22995;SDS011;11664;49.774;8.650;2023-01-16T04:00:28;3.05;;;2.95;;
22995;SDS011;11664;49.774;8.650;2023-01-16T04:08:14;7.03;;;3.10;;
22995;SDS011;11664;49.774;8.650;2023-01-16T04:10:47;3.10;;;2.90;;
22995;SDS011;11664;49.774;8.650;2023-01-16T04:13:17;3.08;;;2.72;;
22995;SDS011;11664;49.774;8.650;2023-01-16T04:15:47;4.60;;;2.70;;
22995;SDS011;11664;49.774;8.650;2023-01-16T04:18:26;4.70;;;3.10;;
22995;SDS011;11664;49.774;8.650;2023-01-16T04:21:14;4.22;;;3.15;;
22995;SDS011;11664;49.774;8.650;2023-01-16T04:23:40;2.60;;;2.50;;
22995;SDS011;11664;49.774;8.650;2023-01-16T04:26:22;2.95;;;2.85;;
22995;SDS011;11664;49.774;8.650;2023-01-16T04:28:47;5.13;;;3.10;;
22995;SDS011;11664;49.774;8.650;2023-01-16T04:31:18;3.13;;;2.92;;
22995;SDS011;11664;49.774;8.650;2023-01-16T04:33:44;2.88;;;2.70;;
22995;SDS011;11664;49.774;8.650;2023-01-16T04:36:17;3.05;;;2.75;;
22995;SDS011;11664;49.774;8.650;2023-01-16T04:38:53;3.00;;;2.83;;
22995;SDS011;11664;49.774;8.650;2023-01-16T04:41:22;3.00;;;2.90;;
22995;SDS011;11664;49.774;8.650;2023-01-16T04:44:06;3.38;;;3.08;;
22995;SDS011;11664;49.774;8.650;2023-01-16T04:46:35;3.35;;;3.10;;
22995;SDS011;11664;49.774;8.650;2023-01-16T04:49:03;2.80;;;2.63;;
22995;SDS011;11664;49.774;8.650;2023-01-16T04:51:39;3.00;;;2.80;;
22995;SDS011;11664;49.774;8.650;2023-01-16T04:54:25;8.32;;;3.47;;
22995;SDS011;11664;49.774;8.650;2023-01-16T04:56:53;2.60;;;2.50;;
22995;SDS011;11664;49.774;8.650;2023-01-16T04:59:19;2.88;;;2.78;;
22995;SDS011;11664;49.774;8.650;2023-01-16T05:01:45;3.10;;;2.90;;
22995;SDS011;11664;49.774;8.650;2023-01-16T05:04:12;4.70;;;3.25;;
22995;SDS011;11664;49.774;8.650;2023-01-16T05:06:39;2.70;;;2.60;;
22995;SDS011;11664;49.774;8.650;2023-01-16T05:09:06;3.10;;;2.90;;
22995;SDS011;11664;49.774;8.650;2023-01-16T05:11:32;6.18;;;2.90;;
22995;SDS011;11664;49.774;8.650;2023-01-16T05:13:58;2.90;;;2.80;;
22995;SDS011;11664;49.774;8.650;2023-01-16T05:16:25;2.97;;;2.83;;
22995;SDS011;11664;49.774;8.650;2023-01-16T05:18:51;5.15;;;2.80;;
22995;SDS011;11664;49.774;8.650;2023-01-16T05:21:17;3.00;;;2.80;;
22995;SDS011;11664;49.774;8.650;2023-01-16T05:23:43;3.05;;;2.85;;
22995;SDS011;11664;49.774;8.650;2023-01-16T05:26:08;2.70;;;2.60;;
22995;SDS011;11664;49.774;8.650;2023-01-16T05:28:35;5.75;;;2.88;;
22995;SDS011;11664;49.774;8.650;2023-01-16T05:31:02;7.13;;;2.90;;
22995;SDS011;11664;49.774;8.650;2023-01-16T05:33:28;2.75;;;2.65;;
22995;SDS011;11664;49.774;8.650;2023-01-16T05:35:57;5.28;;;2.85;;
22995;SDS011;11664;49.774;8.650;2023-01-16T05:38:23;4.65;;;3.33;;
22995;SDS011;11664;49.774;8.650;2023-01-16T05:40:49;3.47;;;3.17;;
22995;SDS011;11664;49.774;8.650;2023-01-16T05:43:15;3.10;;;2.75;;
22995;SDS011;11664;49.774;8.650;2023-01-16T05:45:41;3.03;;;2.75;;
22995;SDS011;11664;49.774;8.650;2023-01-16T05:48:07;2.70;;;2.60;;
22995;SDS011;11664;49.774;8.650;2023-01-16T05:50:33;2.88;;;2.78;;
22995;SDS011;11664;49.774;8.650;2023-01-16T05:52:58;2.92;;;2.83;;
22995;SDS011;11664;49.774;8.650;2023-01-16T05:55:24;2.90;;;2.70;;
22995;SDS011;11664;49.774;8.650;2023-01-16T05:57:50;3.47;;;3.28;;
22995;SDS011;11664;49.774;8.650;2023-01-16T06:00:16;3.55;;;3.25;;
22995;SDS011;11664;49.774;8.650;2023-01-16T06:02:42;3.28;;;3.08;;
22995;SDS011;11664;49.774;8.650;2023-01-16T06:05:08;3.25;;;3.10;;
22995;SDS011;11664;49.774;8.650;2023-01-16T06:07:34;3.88;;;3.03;;
22995;SDS011;11664;49.774;8.650;2023-01-16T06:09:59;3.15;;;2.85;;
22995;SDS011;11664;49.774;8.650;2023-01-16T06:12:25;2.90;;;2.80;;
22995;SDS011;11664;49.774;8.650;2023-01-16T06:14:50;3.15;;;2.95;;
22995;SDS011;11664;49.774;8.650;2023-01-16T06:17:16;4.20;;;2.95;;
22995;SDS011;11664;49.774;8.650;2023-01-16T06:19:43;3.13;;;2.90;;
22995;SDS011;11664;49.774;8.650;2023-01-16T06:22:09;3.25;;;3.10;;
22995;SDS011;11664;49.774;8.650;2023-01-16T06:24:36;3.45;;;3.17;;
22995;SDS011;11664;49.774;8.650;2023-01-16T06:27:01;3.20;;;3.00;;
22995;SDS011;11664;49.774;8.650;2023-01-16T06:29:27;3.25;;;3.05;;
22995;SDS011;11664;49.774;8.650;2023-01-16T06:31:52;2.80;;;2.70;;
22995;SDS011;11664;49.774;8.650;2023-01-16T06:34:18;2.88;;;2.67;;
22995;SDS011;11664;49.774;8.650;2023-01-16T06:36:43;2.70;;;2.60;;
22995;SDS011;11664;49.774;8.650;2023-01-16T06:39:12;2.65;;;2.55;;
22995;SDS011;11664;49.774;8.650;2023-01-16T06:41:38;3.00;;;2.70;;
22995;SDS011;11664;49.774;8.650;2023-01-16T06:44:04;2.80;;;2.60;;
22995;SDS011;11664;49.774;8.650;2023-01-16T06:46:30;2.70;;;2.60;;
22995;SDS011;11664;49.774;8.650;2023-01-16T06:48:55;3.00;;;2.80;;
22995;SDS011;11664;49.774;8.650;2023-01-16T06:51:21;2.67;;;2.58;;
22995;SDS011;11664;49.774;8.650;2023-01-16T06:53:46;2.70;;;2.60;;
22995;SDS011;11664;49.774;8.650;2023-01-16T06:56:12;2.67;;;2.58;;
22995;SDS011;11664;49.774;8.650;2023-01-16T06:58:37;2.78;;;2.67;;
22995;SDS011;11664;49.774;8.650;2023-01-16T07:01:03;2.70;;;2.60;;
22995;SDS011;11664;49.774;8.650;2023-01-16T07:03:29;3.80;;;2.92;;
22995;SDS011;11664;49.774;8.650;2023-01-16T07:05:55;2.70;;;2.60;;
22995;SDS011;11664;49.774;8.650;2023-01-16T07:08:21;4.85;;;2.80;;
22995;SDS011;11664;49.774;8.650;2023-01-16T07:10:46;3.42;;;3.10;;
22995;SDS011;11664;49.774;8.650;2023-01-16T07:13:12;2.72;;;2.63;;
22995;SDS011;11664;49.774;8.650;2023-01-16T07:15:38;2.92;;;2.72;;
22995;SDS011;11664;49.774;8.650;2023-01-16T07:18:30;3.50;;;3.30;;
22995;SDS011;11664;49.774;8.650;2023-01-16T07:21:14;5.80;;;3.13;;
22995;SDS011;11664;49.774;8.650;2023-01-16T07:24:02;3.83;;;2.70;;
22995;SDS011;11664;49.774;8.650;2023-01-16T07:26:31;2.72;;;2.53;;
22995;SDS011;11664;49.774;8.650;2023-01-16T07:28:58;3.10;;;2.80;;
22995;SDS011;11664;49.774;8.650;2023-01-16T07:31:24;2.83;;;2.65;;
22995;SDS011;11664;49.774;8.650;2023-01-16T07:33:50;3.00;;;2.90;;
22995;SDS011;11664;49.774;8.650;2023-01-16T07:36:16;3.17;;;2.88;;
22995;SDS011;11664;49.774;8.650;2023-01-16T07:38:41;4.13;;;2.85;;
22995;SDS011;11664;49.774;8.650;2023-01-16T07:41:07;3.00;;;2.83;;
22995;SDS011;11664;49.774;8.650;2023-01-16T07:43:33;2.78;;;2.60;;
22995;SDS011;11664;49.774;8.650;2023-01-16T07:45:59;2.88;;;2.65;;
22995;SDS011;11664;49.774;8.650;2023-01-16T07:48:24;2.95;;;2.75;;
22995;SDS011;11664;49.774;8.650;2023-01-16T07:50:51;5.38;;;2.72;;
22995;SDS011;11664;49.774;8.650;2023-01-16T07:53:21;2.78;;;2.63;;
22995;SDS011;11664;49.774;8.650;2023-01-16T07:55:48;4.20;;;2.67;;
22995;SDS011;11664;49.774;8.650;2023-01-16T07:58:15;2.75;;;2.65;;
22995;SDS011;11664;49.774;8.650;2023-01-16T08:00:42;2.80;;;2.70;;
22995;SDS011;11664;49.774;8.650;2023-01-16T08:03:07;3.00;;;2.80;;
22995;SDS011;11664;49.774;8.650;2023-01-16T08:05:33;2.90;;;2.80;;
22995;SDS011;11664;49.774;8.650;2023-01-16T08:07:58;3.00;;;2.80;;
22995;SDS011;11664;49.774;8.650;2023-01-16T08:10:24;3.25;;;3.15;;
22995;SDS011;11664;49.774;8.650;2023-01-16T08:12:49;3.70;;;3.58;;
22995;SDS011;11664;49.774;8.650;2023-01-16T08:15:15;3.67;;;3.58;;
22995;SDS011;11664;49.774;8.650;2023-01-16T08:17:41;3.55;;;3.45;;
22995;SDS011;11664;49.774;8.650;2023-01-16T08:20:07;4.38;;;3.40;;
22995;SDS011;11664;49.774;8.650;2023-01-16T08:22:33;3.42;;;3.22;;
22995;SDS011;11664;49.774;8.650;2023-01-16T08:24:59;3.72;;;3.13;;
22995;SDS011;11664;49.774;8.650;2023-01-16T08:27:26;3.28;;;3.08;;
22995;SDS011;11664;49.774;8.650;2023-01-16T08:29:51;3.03;;;2.90;;
22995;SDS011;11664;49.774;8.650;2023-01-16T08:32:17;3.38;;;3.13;;
22995;SDS011;11664;49.774;8.650;2023-01-16T08:34:42;3.00;;;2.85;;
22995;SDS011;11664;49.774;8.650;2023-01-16T08:37:08;2.90;;;2.70;;
22995;SDS011;11664;49.774;8.650;2023-01-16T08:39:35;2.70;;;2.60;;
22995;SDS011;11664;49.774;8.650;2023-01-16T08:42:01;3.15;;;2.95;;
22995;SDS011;11664;49.774;8.650;2023-01-16T08:44:46;2.70;;;2.60;;
22995;SDS011;11664;49.774;8.650;2023-01-16T08:47:30;2.55;;;2.45;;
22995;SDS011;11664;49.774;8.650;2023-01-16T08:50:18;3.25;;;3.05;;
22995;SDS011;11664;49.774;8.650;2023-01-16T08:53:03;3.22;;;3.10;;
22995;SDS011;11664;49.774;8.650;2023-01-16T08:55:30;3.50;;;2.88;;
22995;SDS011;11664;49.774;8.650;2023-01-16T08:57:55;2.85;;;2.65;;
22995;SDS011;11664;49.774;8.650;2023-01-16T09:00:23;2.80;;;2.70;;
22995;SDS011;11664;49.774;8.650;2023-01-16T09:02:50;2.83;;;2.55;;
22995;SDS011;11664;49.774;8.650;2023-01-16T09:05:15;5.85;;;2.67;;
22995;SDS011;11664;49.774;8.650;2023-01-16T09:07:41;3.10;;;2.90;;
22995;SDS011;11664;49.774;8.650;2023-01-16T09:10:07;2.78;;;2.67;;
22995;SDS011;11664;49.774;8.650;2023-01-16T09:12:33;2.70;;;2.60;;
22995;SDS011;11664;49.774;8.650;2023-01-16T09:15:17;2.90;;;2.70;;
22995;SDS011;11664;49.774;8.650;2023-01-16T09:17:43;2.67;;;2.58;;
22995;SDS011;11664;49.774;8.650;2023-01-16T09:20:09;4.75;;;2.80;;
22995;SDS011;11664;49.774;8.650;2023-01-16T09:22:35;2.80;;;2.60;;
22995;SDS011;11664;49.774;8.650;2023-01-16T09:25:00;2.45;;;2.35;;
22995;SDS011;11664;49.774;8.650;2023-01-16T09:27:26;3.15;;;2.55;;
22995;SDS011;11664;49.774;8.650;2023-01-16T09:29:52;3.15;;;2.95;;
22995;SDS011;11664;49.774;8.650;2023-01-16T09:32:17;4.70;;;3.40;;
22995;SDS011;11664;49.774;8.650;2023-01-16T09:34:43;2.85;;;2.67;;
22995;SDS011;11664;49.774;8.650;2023-01-16T09:37:10;3.13;;;3.03;;
22995;SDS011;11664;49.774;8.650;2023-01-16T09:39:36;3.17;;;3.08;;
22995;SDS011;11664;49.774;8.650;2023-01-16T09:45:04;2.67;;;2.58;;
22995;SDS011;11664;49.774;8.650;2023-01-16T09:47:33;2.70;;;2.60;;
22995;SDS011;11664;49.774;8.650;2023-01-16T09:50:04;2.92;;;2.72;;
22995;SDS011;11664;49.774;8.650;2023-01-16T09:52:38;2.88;;;2.78;;
22995;SDS011;11664;49.774;8.650;2023-01-16T09:55:32;3.60;;;2.67;;
22995;SDS011;11664;49.774;8.650;2023-01-16T09:58:22;2.97;;;2.80;;
22995;SDS011;11664;49.774;8.650;2023-01-16T10:01:00;4.65;;;2.88;;
22995;SDS011;11664;49.774;8.650;2023-01-16T10:03:27;3.05;;;2.85;;
22995;SDS011;11664;49.774;8.650;2023-01-16T10:08:55;2.97;;;2.80;;
22995;SDS011;11664;49.774;8.650;2023-01-16T10:11:34;3.20;;;2.90;;
22995;SDS011;11664;49.774;8.650;2023-01-16T10:14:10;2.72;;;2.63;;
22995;SDS011;11664;49.774;8.650;2023-01-16T10:27:50;3.20;;;3.00;;
22995;SDS011;11664;49.774;8.650;2023-01-16T10:30:36;2.80;;;2.70;;
22995;SDS011;11664;49.774;8.650;2023-01-16T10:33:29;2.60;;;2.50;;
22995;SDS011;11664;49.774;8.650;2023-01-16T10:36:02;4.28;;;2.83;;
22995;SDS011;11664;49.774;8.650;2023-01-16T10:38:37;3.10;;;2.90;;
22995;SDS011;11664;49.774;8.650;2023-01-16T10:44:02;3.78;;;3.08;;
22995;SDS011;11664;49.774;8.650;2023-01-16T10:49:38;3.00;;;2.90;;
22995;SDS011;11664;49.774;8.650;2023-01-16T10:52:04;3.33;;;3.22;;
22995;SDS011;11664;49.774;8.650;2023-01-16T10:54:30;3.40;;;3.20;;
22995;SDS011;11664;49.774;8.650;2023-01-16T10:56:56;2.90;;;2.80;;
22995;SDS011;11664;49.774;8.650;2023-01-16T10:59:28;3.30;;;3.10;;
22995;SDS011;11664;49.774;8.650;2023-01-16T11:01:56;4.22;;;3.10;;
22995;SDS011;11664;49.774;8.650;2023-01-16T11:04:24;4.57;;;4.18;;
22995;SDS011;11664;49.774;8.650;2023-01-16T11:07:18;4.18;;;3.97;;
22995;SDS011;11664;49.774;8.650;2023-01-16T11:09:45;3.72;;;3.53;;
22995;SDS011;11664;49.774;8.650;2023-01-16T11:12:11;4.78;;;4.38;;
22995;SDS011;11664;49.774;8.650;2023-01-16T11:15:07;4.22;;;3.85;;
22995;SDS011;11664;49.774;8.650;2023-01-16T11:17:58;4.05;;;3.80;;
22995;SDS011;11664;49.774;8.650;2023-01-16T11:20:42;3.85;;;3.58;;
22995;SDS011;11664;49.774;8.650;2023-01-16T11:23:18;3.65;;;3.45;;
22995;SDS011;11664;49.774;8.650;2023-01-16T11:25:48;3.25;;;3.05;;
22995;SDS011;11664;49.774;8.650;2023-01-16T11:28:26;4.32;;;4.13;;
22995;SDS011;11664;49.774;8.650;2023-01-16T11:30:54;4.60;;;4.30;;
22995;SDS011;11664;49.774;8.650;2023-01-16T11:33:22;4.30;;;4.10;;
22995;SDS011;11664;49.774;8.650;2023-01-16T11:35:54;5.40;;;4.88;;
22995;SDS011;11664;49.774;8.650;2023-01-16T11:38:21;5.28;;;5.07;;
22995;SDS011;11664;49.774;8.650;2023-01-16T11:40:48;5.38;;;5.07;;
22995;SDS011;11664;49.774;8.650;2023-01-16T11:43:18;5.20;;;4.78;;
22995;SDS011;11664;49.774;8.650;2023-01-16T11:46:20;5.32;;;3.33;;
22995;SDS011;11664;49.774;8.650;2023-01-16T11:48:52;3.38;;;3.17;;
22995;SDS011;11664;49.774;8.650;2023-01-16T11:51:20;3.22;;;3.10;;
22995;SDS011;11664;49.774;8.650;2023-01-16T11:53:48;3.10;;;3.00;;
22995;SDS011;11664;49.774;8.650;2023-01-16T12:02:02;7.45;;;3.20;;
22995;SDS011;11664;49.774;8.650;2023-01-16T12:07:44;13.23;;;3.08;;
22995;SDS011;11664;49.774;8.650;2023-01-16T12:16:37;3.00;;;2.90;;
22995;SDS011;11664;49.774;8.650;2023-01-16T12:19:25;4.10;;;3.80;;
22995;SDS011;11664;49.774;8.650;2023-01-16T12:22:16;2.97;;;2.88;;
22995;SDS011;11664;49.774;8.650;2023-01-16T12:27:54;2.92;;;2.83;;
22995;SDS011;11664;49.774;8.650;2023-01-16T12:30:49;3.38;;;3.17;;
22995;SDS011;11664;49.774;8.650;2023-01-16T12:33:56;3.00;;;2.80;;
22995;SDS011;11664;49.774;8.650;2023-01-16T12:36:34;3.47;;;3.28;;
22995;SDS011;11664;49.774;8.650;2023-01-16T12:42:35;5.63;;;5.40;;
22995;SDS011;11664;49.774;8.650;2023-01-16T12:51:25;3.00;;;2.53;;
22995;SDS011;11664;49.774;8.650;2023-01-16T12:54:17;3.00;;;2.90;;
22995;SDS011;11664;49.774;8.650;2023-01-16T12:59:25;3.97;;;3.67;;
22995;SDS011;11664;49.774;8.650;2023-01-16T13:04:41;3.20;;;3.10;;
22995;SDS011;11664;49.774;8.650;2023-01-16T13:07:15;3.10;;;2.80;;
22995;SDS011;11664;49.774;8.650;2023-01-16T13:12:41;3.40;;;3.20;;
22995;SDS011;11664;49.774;8.650;2023-01-16T13:15:36;3.15;;;3.05;;
22995;SDS011;11664;49.774;8.650;2023-01-16T13:18:07;3.58;;;3.47;;
22995;SDS011;11664;49.774;8.650;2023-01-16T13:20:59;3.58;;;3.47;;
22995;SDS011;11664;49.774;8.650;2023-01-16T13:23:29;3.47;;;3.38;;
22995;SDS011;11664;49.774;8.650;2023-01-16T13:28:45;3.45;;;3.25;;
22995;SDS011;11664;49.774;8.650;2023-01-16T13:33:44;4.13;;;3.78;;
22995;SDS011;11664;49.774;8.650;2023-01-16T13:36:19;3.50;;;3.30;;
22995;SDS011;11664;49.774;8.650;2023-01-16T13:41:40;3.35;;;3.25;;
22995;SDS011;11664;49.774;8.650;2023-01-16T13:44:15;3.63;;;3.53;;
22995;SDS011;11664;49.774;8.650;2023-01-16T13:47:04;3.95;;;3.75;;
22995;SDS011;11664;49.774;8.650;2023-01-16T13:49:36;3.78;;;3.58;;
22995;SDS011;11664;49.774;8.650;2023-01-16T13:52:02;3.55;;;3.45;;
22995;SDS011;11664;49.774;8.650;2023-01-16T13:54:37;3.60;;;3.50;;
22995;SDS011;11664;49.774;8.650;2023-01-16T13:57:14;3.65;;;3.45;;
22995;SDS011;11664;49.774;8.650;2023-01-16T13:59:48;3.30;;;3.20;;
22995;SDS011;11664;49.774;8.650;2023-01-16T14:03:16;4.10;;;3.00;;
22995;SDS011;11664;49.774;8.650;2023-01-16T14:16:01;3.40;;;3.10;;
22995;SDS011;11664;49.774;8.650;2023-01-16T14:21:41;2.92;;;2.80;;
22995;SDS011;11664;49.774;8.650;2023-01-16T14:24:29;3.00;;;2.90;;
22995;SDS011;11664;49.774;8.650;2023-01-16T14:27:14;3.00;;;2.90;;
22995;SDS011;11664;49.774;8.650;2023-01-16T14:29:52;2.70;;;2.60;;
22995;SDS011;11664;49.774;8.650;2023-01-16T14:32:28;3.00;;;2.90;;
22995;SDS011;11664;49.774;8.650;2023-01-16T14:34:57;3.00;;;2.90;;
22995;SDS011;11664;49.774;8.650;2023-01-16T14:40:22;3.20;;;3.10;;
22995;SDS011;11664;49.774;8.650;2023-01-16T14:43:14;3.55;;;3.25;;
22995;SDS011;11664;49.774;8.650;2023-01-16T14:55:25;2.80;;;2.70;;
22995;SDS011;11664;49.774;8.650;2023-01-16T14:57:55;3.10;;;3.00;;
22995;SDS011;11664;49.774;8.650;2023-01-16T15:00:21;3.00;;;2.85;;
22995;SDS011;11664;49.774;8.650;2023-01-16T15:03:00;3.10;;;3.00;;
22995;SDS011;11664;49.774;8.650;2023-01-16T15:05:34;3.22;;;3.13;;
22995;SDS011;11664;49.774;8.650;2023-01-16T15:08:25;3.05;;;2.95;;
22995;SDS011;11664;49.774;8.650;2023-01-16T15:10:54;3.03;;;2.88;;
22995;SDS011;11664;49.774;8.650;2023-01-16T15:13:31;3.08;;;2.97;;
22995;SDS011;11664;49.774;8.650;2023-01-16T15:16:19;3.67;;;3.47;;
22995;SDS011;11664;49.774;8.650;2023-01-16T15:19:14;2.75;;;2.65;;
22995;SDS011;11664;49.774;8.650;2023-01-16T15:22:04;3.45;;;3.35;;
22995;SDS011;11664;49.774;8.650;2023-01-16T15:24:43;3.50;;;3.30;;
22995;SDS011;11664;49.774;8.650;2023-01-16T15:27:16;7.13;;;3.30;;
22995;SDS011;11664;49.774;8.650;2023-01-16T15:32:28;3.50;;;3.20;;
22995;SDS011;11664;49.774;8.650;2023-01-16T15:35:04;3.20;;;3.03;;
22995;SDS011;11664;49.774;8.650;2023-01-16T15:37:46;3.40;;;3.30;;
22995;SDS011;11664;49.774;8.650;2023-01-16T15:40:27;3.17;;;3.03;;
22995;SDS011;11664;49.774;8.650;2023-01-16T15:42:54;3.33;;;3.17;;
22995;SDS011;11664;49.774;8.650;2023-01-16T15:45:44;3.55;;;3.35;;
22995;SDS011;11664;49.774;8.650;2023-01-16T15:48:43;3.10;;;3.00;;
22995;SDS011;11664;49.774;8.650;2023-01-16T15:51:19;3.58;;;3.47;;
22995;SDS011;11664;49.774;8.650;2023-01-16T15:53:46;4.10;;;3.85;;
22995;SDS011;11664;49.774;8.650;2023-01-16T15:56:20;4.03;;;3.83;;
22995;SDS011;11664;49.774;8.650;2023-01-16T15:58:48;3.40;;;3.20;;
22995;SDS011;11664;49.774;8.650;2023-01-16T16:01:23;3.83;;;3.63;;
22995;SDS011;11664;49.774;8.650;2023-01-16T16:03:59;3.70;;;3.58;;
22995;SDS011;11664;49.774;8.650;2023-01-16T16:06:26;3.72;;;3.53;;
22995;SDS011;11664;49.774;8.650;2023-01-16T16:08:54;4.80;;;4.60;;
22995;SDS011;11664;49.774;8.650;2023-01-16T16:11:24;4.70;;;4.50;;
22995;SDS011;11664;49.774;8.650;2023-01-16T16:14:12;4.40;;;4.10;;
22995;SDS011;11664;49.774;8.650;2023-01-16T16:23:00;5.90;;;5.60;;
22995;SDS011;11664;49.774;8.650;2023-01-16T16:25:35;5.82;;;5.53;;
22995;SDS011;11664;49.774;8.650;2023-01-16T16:28:04;6.03;;;5.72;;
22995;SDS011;11664;49.774;8.650;2023-01-16T16:30:40;4.88;;;4.68;;
22995;SDS011;11664;49.774;8.650;2023-01-16T16:33:12;5.60;;;5.30;;
22995;SDS011;11664;49.774;8.650;2023-01-16T16:35:46;4.55;;;4.35;;
22995;SDS011;11664;49.774;8.650;2023-01-16T16:38:22;3.97;;;3.67;;
22995;SDS011;11664;49.774;8.650;2023-01-16T16:48:53;4.50;;;4.30;;
22995;SDS011;11664;49.774;8.650;2023-01-16T16:53:56;3.42;;;3.22;;
22995;SDS011;11664;49.774;8.650;2023-01-16T16:56:27;3.50;;;3.30;;
22995;SDS011;11664;49.774;8.650;2023-01-16T16:58:56;2.90;;;2.80;;
22995;SDS011;11664;49.774;8.650;2023-01-16T17:01:22;5.00;;;4.80;;
22995;SDS011;11664;49.774;8.650;2023-01-16T17:03:51;4.18;;;3.97;;
22995;SDS011;11664;49.774;8.650;2023-01-16T17:06:21;3.90;;;3.70;;
22995;SDS011;11664;49.774;8.650;2023-01-16T17:08:54;3.50;;;3.30;;
22995;SDS011;11664;49.774;8.650;2023-01-16T17:11:20;3.08;;;2.92;;
22995;SDS011;11664;49.774;8.650;2023-01-16T17:13:46;3.70;;;3.40;;
22995;SDS011;11664;49.774;8.650;2023-01-16T17:16:22;3.30;;;3.20;;
22995;SDS011;11664;49.774;8.650;2023-01-16T17:18:52;2.85;;;2.75;;
22995;SDS011;11664;49.774;8.650;2023-01-16T17:21:23;3.03;;;2.92;;
22995;SDS011;11664;49.774;8.650;2023-01-16T17:23:48;2.92;;;2.83;;
22995;SDS011;11664;49.774;8.650;2023-01-16T17:26:14;3.13;;;3.03;;
22995;SDS011;11664;49.774;8.650;2023-01-16T17:28:40;3.08;;;2.97;;
22995;SDS011;11664;49.774;8.650;2023-01-16T17:31:11;3.75;;;3.55;;
22995;SDS011;11664;49.774;8.650;2023-01-16T17:33:38;2.90;;;2.80;;
22995;SDS011;11664;49.774;8.650;2023-01-16T17:36:04;3.08;;;2.97;;
22995;SDS011;11664;49.774;8.650;2023-01-16T17:38:37;3.63;;;3.53;;
22995;SDS011;11664;49.774;8.650;2023-01-16T17:41:03;3.83;;;3.63;;
22995;SDS011;11664;49.774;8.650;2023-01-16T17:43:31;2.83;;;2.72;;
22995;SDS011;11664;49.774;8.650;2023-01-16T17:46:16;3.20;;;3.10;;
22995;SDS011;11664;49.774;8.650;2023-01-16T17:48:43;3.17;;;3.08;;
22995;SDS011;11664;49.774;8.650;2023-01-16T17:51:09;3.10;;;3.00;;